sensor_id;sensor_type;location;lat;lon;timestamp;P1;durP1;ratioP1;P2;durP2;ratioP2
5630;SDS011;2837;50.990;7.124;2024-01-06T06:01:15;158.57;;;9.83;;
5630;SDS011;2837;50.990;7.124;2024-01-06T06:03:41;158.37;;;11.50;;
5630;SDS011;2837;50.990;7.124;2024-01-06T06:06:08;157.87;;;10.40;;
5630;SDS011;2837;50.990;7.124;2024-01-06T06:08:34;158.80;;;10.67;;
5630;SDS011;2837;50.990;7.124;2024-01-06T06:11:00;171.63;;;13.52;;
5630;SDS011;2837;50.990;7.124;2024-01-06T06:13:29;170.95;;;13.18;;
5630;SDS011;2837;50.990;7.124;2024-01-06T06:15:55;171.00;;;13.80;;
5630;SDS011;2837;50.990;7.124;2024-01-06T06:18:21;157.07;;;9.93;;
5630;SDS011;2837;50.990;7.124;2024-01-06T06:20:47;170.27;;;12.80;;
5630;SDS011;2837;50.990;7.124;2024-01-06T06:23:13;158.00;;;9.70;;
5630;SDS011;2837;50.990;7.124;2024-01-06T06:25:39;156.13;;;9.27;;
5630;SDS011;2837;50.990;7.124;2024-01-06T06:28:05;155.77;;;9.60;;
5630;SDS011;2837;50.990;7.124;2024-01-06T06:30:32;170.50;;;12.07;;
5630;SDS011;2837;50.990;7.124;2024-01-06T06:32:58;167.98;;;11.90;;
5630;SDS011;2837;50.990;7.124;2024-01-06T06:35:24;167.10;;;11.30;;
5630;SDS011;2837;50.990;7.124;2024-01-06T06:37:50;170.93;;;12.60;;
5630;SDS011;2837;50.990;7.124;2024-01-06T06:40:16;166.27;;;10.60;;
5630;SDS011;2837;50.990;7.124;2024-01-06T06:42:42;165.10;;;10.38;;
5630;SDS011;2837;50.990;7.124;2024-01-06T06:45:08;151.67;;;7.63;;
5630;SDS011;2837;50.990;7.124;2024-01-06T06:47:36;165.90;;;10.27;;
5630;SDS011;2837;50.990;7.124;2024-01-06T06:50:02;152.90;;;7.47;;
5630;SDS011;2837;50.990;7.124;2024-01-06T06:52:28;166.88;;;10.13;;
5630;SDS011;2837;50.990;7.124;2024-01-06T06:54:54;154.20;;;8.30;;
5630;SDS011;2837;50.990;7.124;2024-01-06T06:57:20;167.37;;;11.17;;
5630;SDS011;2837;50.990;7.124;2024-01-06T06:59:46;154.07;;;8.17;;
5630;SDS011;2837;50.990;7.124;2024-01-06T07:02:12;170.50;;;11.20;;
5630;SDS011;2837;50.990;7.124;2024-01-06T07:04:38;167.13;;;11.00;;
5630;SDS011;2837;50.990;7.124;2024-01-06T07:07:04;168.53;;;10.80;;
5630;SDS011;2837;50.990;7.124;2024-01-06T07:09:30;167.85;;;11.35;;
5630;SDS011;2837;50.990;7.124;2024-01-06T07:11:56;167.25;;;11.18;;
5630;SDS011;2837;50.990;7.124;2024-01-06T07:14:22;166.95;;;11.20;;
5630;SDS011;2837;50.990;7.124;2024-01-06T07:16:48;166.80;;;11.05;;
5630;SDS011;2837;50.990;7.124;2024-01-06T07:19:14;168.05;;;11.93;;
5630;SDS011;2837;50.990;7.124;2024-01-06T07:21:40;168.77;;;11.90;;
5630;SDS011;2837;50.990;7.124;2024-01-06T07:24:06;168.90;;;11.85;;
5630;SDS011;2837;50.990;7.124;2024-01-06T07:26:32;168.18;;;12.07;;
5630;SDS011;2837;50.990;7.124;2024-01-06T07:28:58;168.07;;;12.00;;
5630;SDS011;2837;50.990;7.124;2024-01-06T07:31:24;167.00;;;11.80;;
5630;SDS011;2837;50.990;7.124;2024-01-06T07:33:50;167.93;;;11.82;;
5630;SDS011;2837;50.990;7.124;2024-01-06T07:36:16;167.95;;;12.07;;
5630;SDS011;2837;50.990;7.124;2024-01-06T07:38:42;168.30;;;12.00;;
5630;SDS011;2837;50.990;7.124;2024-01-06T07:41:10;167.75;;;11.93;;
5630;SDS011;2837;50.990;7.124;2024-01-06T07:43:36;169.02;;;12.52;;
5630;SDS011;2837;50.990;7.124;2024-01-06T07:46:02;167.70;;;11.70;;
5630;SDS011;2837;50.990;7.124;2024-01-06T07:48:29;167.97;;;12.03;;
5630;SDS011;2837;50.990;7.124;2024-01-06T07:50:55;168.10;;;12.30;;
5630;SDS011;2837;50.990;7.124;2024-01-06T07:53:21;167.88;;;12.27;;
5630;SDS011;2837;50.990;7.124;2024-01-06T07:55:47;168.45;;;12.68;;
5630;SDS011;2837;50.990;7.124;2024-01-06T07:58:13;167.38;;;11.70;;
5630;SDS011;2837;50.990;7.124;2024-01-06T08:00:39;168.30;;;12.25;;
5630;SDS011;2837;50.990;7.124;2024-01-06T08:03:05;168.70;;;12.45;;
5630;SDS011;2837;50.990;7.124;2024-01-06T08:05:31;168.10;;;11.67;;
5630;SDS011;2837;50.990;7.124;2024-01-06T08:07:57;169.07;;;12.30;;
5630;SDS011;2837;50.990;7.124;2024-01-06T08:10:23;169.15;;;12.60;;
5630;SDS011;2837;50.990;7.124;2024-01-06T08:12:49;169.70;;;12.77;;
5630;SDS011;2837;50.990;7.124;2024-01-06T08:15:15;171.60;;;13.13;;
5630;SDS011;2837;50.990;7.124;2024-01-06T08:17:41;169.20;;;12.53;;
5630;SDS011;2837;50.990;7.124;2024-01-06T08:20:08;169.75;;;13.10;;
5630;SDS011;2837;50.990;7.124;2024-01-06T08:22:34;169.50;;;13.40;;
5630;SDS011;2837;50.990;7.124;2024-01-06T08:25:00;169.70;;;12.95;;
5630;SDS011;2837;50.990;7.124;2024-01-06T08:27:26;169.88;;;12.75;;
5630;SDS011;2837;50.990;7.124;2024-01-06T08:29:52;169.48;;;12.93;;
5630;SDS011;2837;50.990;7.124;2024-01-06T08:32:18;168.57;;;12.57;;
5630;SDS011;2837;50.990;7.124;2024-01-06T08:34:44;168.77;;;12.47;;
5630;SDS011;2837;50.990;7.124;2024-01-06T08:37:10;169.87;;;13.73;;
5630;SDS011;2837;50.990;7.124;2024-01-06T08:39:36;168.30;;;12.70;;
5630;SDS011;2837;50.990;7.124;2024-01-06T08:42:01;169.10;;;12.60;;
5630;SDS011;2837;50.990;7.124;2024-01-06T08:44:27;169.95;;;12.50;;
5630;SDS011;2837;50.990;7.124;2024-01-06T08:46:53;169.45;;;12.40;;
5630;SDS011;2837;50.990;7.124;2024-01-06T08:49:19;171.57;;;13.48;;
5630;SDS011;2837;50.990;7.124;2024-01-06T08:51:45;173.27;;;14.73;;
5630;SDS011;2837;50.990;7.124;2024-01-06T08:54:11;168.85;;;12.43;;
5630;SDS011;2837;50.990;7.124;2024-01-06T08:56:38;168.30;;;12.60;;
5630;SDS011;2837;50.990;7.124;2024-01-06T08:59:04;169.33;;;12.97;;
5630;SDS011;2837;50.990;7.124;2024-01-06T09:01:30;168.82;;;12.50;;
5630;SDS011;2837;50.990;7.124;2024-01-06T09:03:56;168.50;;;11.73;;
5630;SDS011;2837;50.990;7.124;2024-01-06T09:06:22;168.45;;;11.75;;
5630;SDS011;2837;50.990;7.124;2024-01-06T09:08:49;167.33;;;11.80;;
5630;SDS011;2837;50.990;7.124;2024-01-06T09:11:15;168.45;;;11.85;;
5630;SDS011;2837;50.990;7.124;2024-01-06T09:13:41;167.80;;;12.23;;
5630;SDS011;2837;50.990;7.124;2024-01-06T09:16:07;168.10;;;12.18;;
5630;SDS011;2837;50.990;7.124;2024-01-06T09:18:33;168.93;;;12.32;;
5630;SDS011;2837;50.990;7.124;2024-01-06T09:20:59;169.07;;;12.40;;
5630;SDS011;2837;50.990;7.124;2024-01-06T09:23:25;168.68;;;12.90;;
5630;SDS011;2837;50.990;7.124;2024-01-06T09:25:51;169.38;;;12.23;;
5630;SDS011;2837;50.990;7.124;2024-01-06T09:28:17;168.23;;;12.40;;
5630;SDS011;2837;50.990;7.124;2024-01-06T09:30:43;168.90;;;12.80;;
5630;SDS011;2837;50.990;7.124;2024-01-06T09:33:09;166.93;;;12.00;;
5630;SDS011;2837;50.990;7.124;2024-01-06T09:35:35;168.17;;;12.10;;
5630;SDS011;2837;50.990;7.124;2024-01-06T09:38:01;169.43;;;12.10;;
5630;SDS011;2837;50.990;7.124;2024-01-06T09:40:27;169.48;;;11.70;;
5630;SDS011;2837;50.990;7.124;2024-01-06T09:42:57;167.63;;;11.77;;
5630;SDS011;2837;50.990;7.124;2024-01-06T09:45:23;166.70;;;11.67;;
5630;SDS011;2837;50.990;7.124;2024-01-06T09:47:49;167.57;;;11.63;;
5630;SDS011;2837;50.990;7.124;2024-01-06T09:50:17;166.70;;;11.35;;
5630;SDS011;2837;50.990;7.124;2024-01-06T09:52:45;167.30;;;11.40;;
5630;SDS011;2837;50.990;7.124;2024-01-06T09:55:17;167.07;;;11.40;;
5630;SDS011;2837;50.990;7.124;2024-01-06T09:57:48;167.10;;;11.93;;
5630;SDS011;2837;50.990;7.124;2024-01-06T10:00:14;166.85;;;11.70;;
5630;SDS011;2837;50.990;7.124;2024-01-06T10:02:40;167.65;;;11.80;;
5630;SDS011;2837;50.990;7.124;2024-01-06T10:05:08;168.30;;;12.40;;
5630;SDS011;2837;50.990;7.124;2024-01-06T10:07:34;167.55;;;12.10;;
5630;SDS011;2837;50.990;7.124;2024-01-06T10:10:00;166.90;;;11.75;;
5630;SDS011;2837;50.990;7.124;2024-01-06T10:12:26;168.60;;;12.40;;
5630;SDS011;2837;50.990;7.124;2024-01-06T10:14:53;167.73;;;11.90;;
5630;SDS011;2837;50.990;7.124;2024-01-06T10:17:19;169.35;;;12.73;;
5630;SDS011;2837;50.990;7.124;2024-01-06T10:19:45;170.25;;;13.45;;
5630;SDS011;2837;50.990;7.124;2024-01-06T10:22:13;169.93;;;13.70;;
5630;SDS011;2837;50.990;7.124;2024-01-06T10:24:39;171.10;;;14.07;;
5630;SDS011;2837;50.990;7.124;2024-01-06T10:27:05;168.68;;;12.80;;
5630;SDS011;2837;50.990;7.124;2024-01-06T10:29:33;168.95;;;13.15;;
5630;SDS011;2837;50.990;7.124;2024-01-06T10:31:59;167.50;;;11.73;;
5630;SDS011;2837;50.990;7.124;2024-01-06T10:34:25;167.90;;;12.23;;
5630;SDS011;2837;50.990;7.124;2024-01-06T10:36:52;166.90;;;11.52;;
5630;SDS011;2837;50.990;7.124;2024-01-06T10:39:18;167.20;;;11.68;;
5630;SDS011;2837;50.990;7.124;2024-01-06T10:41:45;166.83;;;11.97;;
5630;SDS011;2837;50.990;7.124;2024-01-06T10:44:13;166.50;;;11.10;;
5630;SDS011;2837;50.990;7.124;2024-01-06T10:46:40;167.10;;;12.13;;
5630;SDS011;2837;50.990;7.124;2024-01-06T10:49:06;168.07;;;12.27;;
5630;SDS011;2837;50.990;7.124;2024-01-06T10:51:37;168.77;;;12.27;;
5630;SDS011;2837;50.990;7.124;2024-01-06T10:54:04;169.10;;;12.60;;
5630;SDS011;2837;50.990;7.124;2024-01-06T10:56:30;168.20;;;12.40;;
5630;SDS011;2837;50.990;7.124;2024-01-06T10:58:59;169.77;;;13.00;;
5630;SDS011;2837;50.990;7.124;2024-01-06T11:01:27;168.55;;;12.63;;
5630;SDS011;2837;50.990;7.124;2024-01-06T11:03:54;169.40;;;12.67;;
5630;SDS011;2837;50.990;7.124;2024-01-06T11:06:20;169.30;;;12.68;;
5630;SDS011;2837;50.990;7.124;2024-01-06T11:08:55;168.90;;;12.48;;
5630;SDS011;2837;50.990;7.124;2024-01-06T11:11:22;168.05;;;12.15;;
5630;SDS011;2837;50.990;7.124;2024-01-06T11:13:48;169.85;;;12.50;;
5630;SDS011;2837;50.990;7.124;2024-01-06T11:16:33;170.85;;;12.30;;
5630;SDS011;2837;50.990;7.124;2024-01-06T11:19:00;170.98;;;13.70;;
5630;SDS011;2837;50.990;7.124;2024-01-06T11:21:26;170.15;;;13.00;;
5630;SDS011;2837;50.990;7.124;2024-01-06T11:26:30;172.70;;;14.10;;
5630;SDS011;2837;50.990;7.124;2024-01-06T11:28:56;173.25;;;14.02;;
5630;SDS011;2837;50.990;7.124;2024-01-06T11:31:23;172.10;;;13.70;;
5630;SDS011;2837;50.990;7.124;2024-01-06T11:33:54;175.35;;;14.07;;
5630;SDS011;2837;50.990;7.124;2024-01-06T11:36:20;175.40;;;15.40;;
5630;SDS011;2837;50.990;7.124;2024-01-06T11:38:47;173.55;;;14.93;;
5630;SDS011;2837;50.990;7.124;2024-01-06T11:41:58;175.20;;;15.40;;
5630;SDS011;2837;50.990;7.124;2024-01-06T11:44:05;175.10;;;15.77;;
5630;SDS011;2837;50.990;7.124;2024-01-06T11:46:31;176.13;;;15.63;;
5630;SDS011;2837;50.990;7.124;2024-01-06T11:48:57;176.93;;;15.77;;
5630;SDS011;2837;50.990;7.124;2024-01-06T11:51:23;175.48;;;15.63;;
5630;SDS011;2837;50.990;7.124;2024-01-06T11:53:49;175.82;;;16.10;;
5630;SDS011;2837;50.990;7.124;2024-01-06T11:56:15;174.73;;;15.13;;
5630;SDS011;2837;50.990;7.124;2024-01-06T11:58:47;175.45;;;15.02;;
5630;SDS011;2837;50.990;7.124;2024-01-06T12:01:13;173.10;;;14.53;;
5630;SDS011;2837;50.990;7.124;2024-01-06T12:03:39;173.13;;;14.20;;
5630;SDS011;2837;50.990;7.124;2024-01-06T12:06:05;172.65;;;14.60;;
5630;SDS011;2837;50.990;7.124;2024-01-06T12:08:31;172.85;;;14.13;;
5630;SDS011;2837;50.990;7.124;2024-01-06T12:11:04;172.30;;;13.70;;
5630;SDS011;2837;50.990;7.124;2024-01-06T12:13:31;171.43;;;13.55;;
5630;SDS011;2837;50.990;7.124;2024-01-06T12:15:56;171.00;;;13.18;;
5630;SDS011;2837;50.990;7.124;2024-01-06T12:18:22;171.17;;;13.70;;
5630;SDS011;2837;50.990;7.124;2024-01-06T12:20:49;173.27;;;14.20;;
5630;SDS011;2837;50.990;7.124;2024-01-06T12:23:28;174.35;;;14.93;;
5630;SDS011;2837;50.990;7.124;2024-01-06T12:25:57;174.95;;;14.82;;
5630;SDS011;2837;50.990;7.124;2024-01-06T12:28:23;178.73;;;15.77;;
5630;SDS011;2837;50.990;7.124;2024-01-06T12:30:49;175.93;;;15.05;;
5630;SDS011;2837;50.990;7.124;2024-01-06T12:33:15;175.32;;;14.80;;
5630;SDS011;2837;50.990;7.124;2024-01-06T12:35:41;174.32;;;14.85;;
5630;SDS011;2837;50.990;7.124;2024-01-06T12:38:11;174.90;;;14.73;;
5630;SDS011;2837;50.990;7.124;2024-01-06T12:40:37;172.82;;;14.18;;
5630;SDS011;2837;50.990;7.124;2024-01-06T12:43:06;173.35;;;13.82;;
5630;SDS011;2837;50.990;7.124;2024-01-06T12:45:32;172.43;;;13.80;;
5630;SDS011;2837;50.990;7.124;2024-01-06T12:47:58;171.98;;;13.50;;
5630;SDS011;2837;50.990;7.124;2024-01-06T12:50:24;173.00;;;14.03;;
5630;SDS011;2837;50.990;7.124;2024-01-06T12:52:50;172.93;;;13.90;;
5630;SDS011;2837;50.990;7.124;2024-01-06T12:55:16;173.90;;;14.27;;
5630;SDS011;2837;50.990;7.124;2024-01-06T12:57:42;172.80;;;13.85;;
5630;SDS011;2837;50.990;7.124;2024-01-06T13:00:08;174.68;;;14.82;;
5630;SDS011;2837;50.990;7.124;2024-01-06T13:02:36;176.20;;;15.43;;
5630;SDS011;2837;50.990;7.124;2024-01-06T13:05:03;173.52;;;14.30;;
5630;SDS011;2837;50.990;7.124;2024-01-06T13:07:29;175.82;;;15.27;;
5630;SDS011;2837;50.990;7.124;2024-01-06T13:09:55;176.55;;;15.75;;
5630;SDS011;2837;50.990;7.124;2024-01-06T13:12:21;175.15;;;14.90;;
5630;SDS011;2837;50.990;7.124;2024-01-06T13:14:48;162.90;;;12.87;;
5630;SDS011;2837;50.990;7.124;2024-01-06T13:17:15;163.20;;;11.80;;
5630;SDS011;2837;50.990;7.124;2024-01-06T13:19:41;158.93;;;10.03;;
5630;SDS011;2837;50.990;7.124;2024-01-06T13:22:07;159.37;;;10.47;;
5630;SDS011;2837;50.990;7.124;2024-01-06T13:24:33;160.60;;;10.60;;
5630;SDS011;2837;50.990;7.124;2024-01-06T13:26:59;159.77;;;10.63;;
5630;SDS011;2837;50.990;7.124;2024-01-06T13:29:27;161.50;;;11.67;;
5630;SDS011;2837;50.990;7.124;2024-01-06T13:31:53;162.17;;;11.40;;
5630;SDS011;2837;50.990;7.124;2024-01-06T13:34:19;161.17;;;11.73;;
5630;SDS011;2837;50.990;7.124;2024-01-06T13:36:46;162.37;;;11.50;;
5630;SDS011;2837;50.990;7.124;2024-01-06T13:39:12;161.67;;;11.97;;
5630;SDS011;2837;50.990;7.124;2024-01-06T13:41:45;162.73;;;12.23;;
5630;SDS011;2837;50.990;7.124;2024-01-06T13:44:11;161.43;;;12.40;;
5630;SDS011;2837;50.990;7.124;2024-01-06T13:46:37;160.73;;;11.20;;
5630;SDS011;2837;50.990;7.124;2024-01-06T13:49:03;161.33;;;11.70;;
5630;SDS011;2837;50.990;7.124;2024-01-06T13:51:29;162.87;;;12.40;;
5630;SDS011;2837;50.990;7.124;2024-01-06T13:53:55;158.90;;;10.57;;
5630;SDS011;2837;50.990;7.124;2024-01-06T13:56:21;162.40;;;12.27;;
5630;SDS011;2837;50.990;7.124;2024-01-06T13:58:47;160.37;;;10.67;;
5630;SDS011;2837;50.990;7.124;2024-01-06T14:01:13;159.87;;;10.87;;
5630;SDS011;2837;50.990;7.124;2024-01-06T14:03:39;160.17;;;10.83;;
5630;SDS011;2837;50.990;7.124;2024-01-06T14:06:05;158.07;;;10.20;;
5630;SDS011;2837;50.990;7.124;2024-01-06T14:08:32;159.87;;;10.87;;
5630;SDS011;2837;50.990;7.124;2024-01-06T14:10:58;172.52;;;13.70;;
5630;SDS011;2837;50.990;7.124;2024-01-06T14:13:24;172.80;;;13.32;;
5630;SDS011;2837;50.990;7.124;2024-01-06T14:15:51;173.02;;;13.77;;
5630;SDS011;2837;50.990;7.124;2024-01-06T14:18:17;171.90;;;13.45;;
5630;SDS011;2837;50.990;7.124;2024-01-06T14:20:43;173.23;;;13.90;;
5630;SDS011;2837;50.990;7.124;2024-01-06T14:23:09;172.80;;;13.93;;
5630;SDS011;2837;50.990;7.124;2024-01-06T14:25:35;172.45;;;14.02;;
5630;SDS011;2837;50.990;7.124;2024-01-06T14:28:01;172.13;;;13.48;;
5630;SDS011;2837;50.990;7.124;2024-01-06T14:30:27;173.23;;;13.77;;
5630;SDS011;2837;50.990;7.124;2024-01-06T14:32:54;174.85;;;14.57;;
5630;SDS011;2837;50.990;7.124;2024-01-06T14:35:20;176.23;;;14.57;;
5630;SDS011;2837;50.990;7.124;2024-01-06T14:37:46;174.55;;;14.70;;
5630;SDS011;2837;50.990;7.124;2024-01-06T14:40:12;175.15;;;15.00;;
5630;SDS011;2837;50.990;7.124;2024-01-06T14:42:38;177.15;;;15.88;;
5630;SDS011;2837;50.990;7.124;2024-01-06T14:45:04;176.13;;;15.68;;
5630;SDS011;2837;50.990;7.124;2024-01-06T14:47:33;175.43;;;15.65;;
5630;SDS011;2837;50.990;7.124;2024-01-06T14:49:59;177.17;;;15.87;;
5630;SDS011;2837;50.990;7.124;2024-01-06T14:52:25;176.63;;;16.13;;
5630;SDS011;2837;50.990;7.124;2024-01-06T14:54:50;176.47;;;16.10;;
5630;SDS011;2837;50.990;7.124;2024-01-06T14:57:16;177.77;;;16.20;;
5630;SDS011;2837;50.990;7.124;2024-01-06T14:59:42;178.18;;;15.90;;
5630;SDS011;2837;50.990;7.124;2024-01-06T15:02:08;178.48;;;16.20;;
5630;SDS011;2837;50.990;7.124;2024-01-06T15:04:36;179.32;;;16.80;;
5630;SDS011;2837;50.990;7.124;2024-01-06T15:07:03;179.32;;;16.50;;
5630;SDS011;2837;50.990;7.124;2024-01-06T15:09:29;160.63;;;11.70;;
5630;SDS011;2837;50.990;7.124;2024-01-06T15:11:55;164.53;;;12.43;;
5630;SDS011;2837;50.990;7.124;2024-01-06T15:14:21;164.30;;;13.10;;
5630;SDS011;2837;50.990;7.124;2024-01-06T15:16:47;165.80;;;13.27;;
5630;SDS011;2837;50.990;7.124;2024-01-06T15:19:13;169.30;;;12.87;;
5630;SDS011;2837;50.990;7.124;2024-01-06T15:21:39;165.23;;;12.27;;
5630;SDS011;2837;50.990;7.124;2024-01-06T15:24:05;165.60;;;13.30;;
5630;SDS011;2837;50.990;7.124;2024-01-06T15:26:31;166.47;;;12.70;;
5630;SDS011;2837;50.990;7.124;2024-01-06T15:28:57;167.90;;;13.80;;
5630;SDS011;2837;50.990;7.124;2024-01-06T15:31:25;163.17;;;12.80;;
5630;SDS011;2837;50.990;7.124;2024-01-06T15:33:51;165.30;;;12.80;;
5630;SDS011;2837;50.990;7.124;2024-01-06T15:36:17;167.87;;;13.50;;
5630;SDS011;2837;50.990;7.124;2024-01-06T15:38:43;164.27;;;12.00;;
5630;SDS011;2837;50.990;7.124;2024-01-06T15:41:09;167.67;;;12.10;;
5630;SDS011;2837;50.990;7.124;2024-01-06T15:43:35;163.17;;;12.23;;
5630;SDS011;2837;50.990;7.124;2024-01-06T15:46:02;164.17;;;11.87;;
5630;SDS011;2837;50.990;7.124;2024-01-06T15:48:28;164.47;;;12.30;;
5630;SDS011;2837;50.990;7.124;2024-01-06T15:50:56;164.57;;;11.47;;
5630;SDS011;2837;50.990;7.124;2024-01-06T15:53:22;165.67;;;12.33;;
5630;SDS011;2837;50.990;7.124;2024-01-06T15:55:49;162.47;;;10.87;;
5630;SDS011;2837;50.990;7.124;2024-01-06T15:58:15;161.27;;;10.70;;
5630;SDS011;2837;50.990;7.124;2024-01-06T16:00:42;162.20;;;10.73;;
5630;SDS011;2837;50.990;7.124;2024-01-06T16:03:08;160.83;;;10.70;;
5630;SDS011;2837;50.990;7.124;2024-01-06T16:05:34;167.40;;;11.23;;
5630;SDS011;2837;50.990;7.124;2024-01-06T16:08:00;161.77;;;10.60;;
5630;SDS011;2837;50.990;7.124;2024-01-06T16:10:27;160.10;;;10.63;;
5630;SDS011;2837;50.990;7.124;2024-01-06T16:12:53;161.90;;;10.73;;
5630;SDS011;2837;50.990;7.124;2024-01-06T16:15:22;158.87;;;9.53;;
5630;SDS011;2837;50.990;7.124;2024-01-06T16:17:49;158.07;;;9.23;;
5630;SDS011;2837;50.990;7.124;2024-01-06T16:20:15;159.27;;;9.57;;
5630;SDS011;2837;50.990;7.124;2024-01-06T16:22:41;159.30;;;9.43;;
5630;SDS011;2837;50.990;7.124;2024-01-06T16:25:07;161.47;;;9.27;;
5630;SDS011;2837;50.990;7.124;2024-01-06T16:27:33;159.70;;;9.90;;
5630;SDS011;2837;50.990;7.124;2024-01-06T16:29:59;161.03;;;10.10;;
5630;SDS011;2837;50.990;7.124;2024-01-06T16:32:25;159.47;;;9.50;;
5630;SDS011;2837;50.990;7.124;2024-01-06T16:34:51;159.13;;;9.23;;
5630;SDS011;2837;50.990;7.124;2024-01-06T16:37:17;159.00;;;9.50;;
5630;SDS011;2837;50.990;7.124;2024-01-06T16:39:43;158.77;;;9.27;;
5630;SDS011;2837;50.990;7.124;2024-01-06T16:42:09;158.90;;;9.63;;
5630;SDS011;2837;50.990;7.124;2024-01-06T16:44:35;160.00;;;9.87;;
5630;SDS011;2837;50.990;7.124;2024-01-06T16:47:01;158.63;;;8.90;;
5630;SDS011;2837;50.990;7.124;2024-01-06T16:49:27;158.77;;;9.70;;
5630;SDS011;2837;50.990;7.124;2024-01-06T16:51:55;160.13;;;10.00;;
5630;SDS011;2837;50.990;7.124;2024-01-06T16:54:21;158.37;;;9.10;;
5630;SDS011;2837;50.990;7.124;2024-01-06T16:56:47;158.80;;;8.90;;
5630;SDS011;2837;50.990;7.124;2024-01-06T16:59:13;157.87;;;8.80;;
5630;SDS011;2837;50.990;7.124;2024-01-06T17:01:39;157.77;;;9.10;;
5630;SDS011;2837;50.990;7.124;2024-01-06T17:04:05;158.10;;;9.20;;
5630;SDS011;2837;50.990;7.124;2024-01-06T17:06:31;157.70;;;8.70;;
5630;SDS011;2837;50.990;7.124;2024-01-06T17:08:57;156.97;;;8.27;;
5630;SDS011;2837;50.990;7.124;2024-01-06T17:11:23;158.07;;;8.57;;
5630;SDS011;2837;50.990;7.124;2024-01-06T17:13:50;157.80;;;8.70;;
5630;SDS011;2837;50.990;7.124;2024-01-06T17:16:16;158.40;;;8.87;;
5630;SDS011;2837;50.990;7.124;2024-01-06T17:18:42;157.63;;;8.33;;
5630;SDS011;2837;50.990;7.124;2024-01-06T17:21:09;156.87;;;8.33;;
5630;SDS011;2837;50.990;7.124;2024-01-06T17:23:40;157.97;;;8.40;;
5630;SDS011;2837;50.990;7.124;2024-01-06T17:26:06;158.00;;;7.90;;
5630;SDS011;2837;50.990;7.124;2024-01-06T17:28:32;157.30;;;7.53;;
5630;SDS011;2837;50.990;7.124;2024-01-06T17:30:58;157.57;;;8.80;;
5630;SDS011;2837;50.990;7.124;2024-01-06T17:33:25;156.63;;;8.20;;
5630;SDS011;2837;50.990;7.124;2024-01-06T17:35:51;158.70;;;8.50;;
5630;SDS011;2837;50.990;7.124;2024-01-06T17:38:18;160.13;;;9.20;;
5630;SDS011;2837;50.990;7.124;2024-01-06T17:40:44;159.37;;;8.50;;
5630;SDS011;2837;50.990;7.124;2024-01-06T17:43:10;157.97;;;8.83;;
5630;SDS011;2837;50.990;7.124;2024-01-06T17:45:37;159.27;;;9.27;;
5630;SDS011;2837;50.990;7.124;2024-01-06T17:48:03;157.97;;;8.80;;
5630;SDS011;2837;50.990;7.124;2024-01-06T17:50:30;158.07;;;8.67;;
5630;SDS011;2837;50.990;7.124;2024-01-06T17:52:56;158.07;;;8.40;;
5630;SDS011;2837;50.990;7.124;2024-01-06T17:55:22;158.77;;;9.07;;
5630;SDS011;2837;50.990;7.124;2024-01-06T17:57:48;157.63;;;8.63;;
5630;SDS011;2837;50.990;7.124;2024-01-06T18:00:14;157.80;;;8.57;;
5630;SDS011;2837;50.990;7.124;2024-01-06T18:02:40;158.07;;;8.80;;
5630;SDS011;2837;50.990;7.124;2024-01-06T18:05:08;158.77;;;8.90;;
5630;SDS011;2837;50.990;7.124;2024-01-06T18:07:34;158.67;;;8.80;;
5630;SDS011;2837;50.990;7.124;2024-01-06T18:10:00;158.97;;;9.40;;
5630;SDS011;2837;50.990;7.124;2024-01-06T18:12:26;160.33;;;9.37;;
5630;SDS011;2837;50.990;7.124;2024-01-06T18:14:52;159.27;;;8.97;;
5630;SDS011;2837;50.990;7.124;2024-01-06T18:17:18;163.20;;;9.60;;
5630;SDS011;2837;50.990;7.124;2024-01-06T18:19:44;159.40;;;9.23;;
5630;SDS011;2837;50.990;7.124;2024-01-06T18:22:10;157.87;;;8.83;;
5630;SDS011;2837;50.990;7.124;2024-01-06T18:24:37;161.47;;;9.37;;
5630;SDS011;2837;50.990;7.124;2024-01-06T18:27:03;161.73;;;10.47;;
5630;SDS011;2837;50.990;7.124;2024-01-06T18:29:29;161.10;;;9.97;;
5630;SDS011;2837;50.990;7.124;2024-01-06T18:31:58;159.87;;;10.07;;
5630;SDS011;2837;50.990;7.124;2024-01-06T18:34:24;160.93;;;10.10;;
5630;SDS011;2837;50.990;7.124;2024-01-06T18:36:51;160.03;;;10.00;;
5630;SDS011;2837;50.990;7.124;2024-01-06T18:39:17;161.27;;;10.77;;
5630;SDS011;2837;50.990;7.124;2024-01-06T18:41:43;160.30;;;9.93;;
5630;SDS011;2837;50.990;7.124;2024-01-06T18:44:09;161.10;;;10.70;;
5630;SDS011;2837;50.990;7.124;2024-01-06T18:46:36;160.67;;;10.00;;
5630;SDS011;2837;50.990;7.124;2024-01-06T18:49:02;161.33;;;10.80;;
5630;SDS011;2837;50.990;7.124;2024-01-06T18:51:28;162.57;;;10.73;;
5630;SDS011;2837;50.990;7.124;2024-01-06T18:53:58;161.70;;;10.33;;
5630;SDS011;2837;50.990;7.124;2024-01-06T18:56:24;160.23;;;10.07;;
5630;SDS011;2837;50.990;7.124;2024-01-06T18:58:52;160.47;;;10.00;;
5630;SDS011;2837;50.990;7.124;2024-01-06T19:01:20;160.83;;;10.10;;
5630;SDS011;2837;50.990;7.124;2024-01-06T19:03:45;161.27;;;10.40;;
5630;SDS011;2837;50.990;7.124;2024-01-06T19:06:11;160.90;;;10.30;;
5630;SDS011;2837;50.990;7.124;2024-01-06T19:08:37;161.37;;;10.10;;
5630;SDS011;2837;50.990;7.124;2024-01-06T19:11:03;159.27;;;9.60;;
5630;SDS011;2837;50.990;7.124;2024-01-06T19:13:29;160.17;;;10.00;;
5630;SDS011;2837;50.990;7.124;2024-01-06T19:15:55;162.60;;;10.97;;
5630;SDS011;2837;50.990;7.124;2024-01-06T19:18:21;158.90;;;9.50;;
5630;SDS011;2837;50.990;7.124;2024-01-06T19:20:47;160.90;;;10.10;;
5630;SDS011;2837;50.990;7.124;2024-01-06T19:23:13;161.37;;;9.50;;
5630;SDS011;2837;50.990;7.124;2024-01-06T19:25:39;159.53;;;9.27;;
5630;SDS011;2837;50.990;7.124;2024-01-06T19:28:05;160.37;;;9.67;;
5630;SDS011;2837;50.990;7.124;2024-01-06T19:30:32;160.03;;;9.60;;
5630;SDS011;2837;50.990;7.124;2024-01-06T19:32:59;159.37;;;9.47;;
5630;SDS011;2837;50.990;7.124;2024-01-06T19:35:25;160.40;;;10.20;;
5630;SDS011;2837;50.990;7.124;2024-01-06T19:37:51;161.07;;;10.30;;
5630;SDS011;2837;50.990;7.124;2024-01-06T19:40:17;160.90;;;9.43;;
5630;SDS011;2837;50.990;7.124;2024-01-06T19:42:53;161.10;;;9.83;;
5630;SDS011;2837;50.990;7.124;2024-01-06T19:45:19;160.63;;;10.37;;
5630;SDS011;2837;50.990;7.124;2024-01-06T19:47:45;161.63;;;10.60;;
5630;SDS011;2837;50.990;7.124;2024-01-06T19:50:11;161.77;;;9.93;;
5630;SDS011;2837;50.990;7.124;2024-01-06T19:52:37;159.43;;;9.70;;
5630;SDS011;2837;50.990;7.124;2024-01-06T19:55:03;160.60;;;9.90;;
5630;SDS011;2837;50.990;7.124;2024-01-06T19:57:32;160.87;;;11.07;;
5630;SDS011;2837;50.990;7.124;2024-01-06T19:59:58;161.83;;;10.73;;
5630;SDS011;2837;50.990;7.124;2024-01-06T20:02:24;162.27;;;11.00;;
5630;SDS011;2837;50.990;7.124;2024-01-06T20:04:50;161.27;;;10.97;;
5630;SDS011;2837;50.990;7.124;2024-01-06T20:07:16;162.30;;;11.30;;
5630;SDS011;2837;50.990;7.124;2024-01-06T20:09:43;160.30;;;10.03;;
5630;SDS011;2837;50.990;7.124;2024-01-06T20:12:09;163.27;;;10.30;;
5630;SDS011;2837;50.990;7.124;2024-01-06T20:14:35;161.47;;;10.57;;
5630;SDS011;2837;50.990;7.124;2024-01-06T20:17:01;163.03;;;10.83;;
5630;SDS011;2837;50.990;7.124;2024-01-06T20:19:28;161.07;;;9.80;;
5630;SDS011;2837;50.990;7.124;2024-01-06T20:21:54;161.00;;;10.93;;
5630;SDS011;2837;50.990;7.124;2024-01-06T20:24:20;161.20;;;10.27;;
5630;SDS011;2837;50.990;7.124;2024-01-06T20:26:46;162.80;;;10.97;;
5630;SDS011;2837;50.990;7.124;2024-01-06T20:29:12;161.27;;;10.03;;
5630;SDS011;2837;50.990;7.124;2024-01-06T20:31:38;160.57;;;10.53;;
5630;SDS011;2837;50.990;7.124;2024-01-06T20:34:04;160.10;;;10.47;;
5630;SDS011;2837;50.990;7.124;2024-01-06T20:36:30;161.57;;;10.13;;